sensor_id;sensor_type;location;lat;lon;timestamp;pressure;altitude;pressure_sealevel;temperature;humidity
31044;BME280;17710;52.520;13.352;2022-10-17T00:01:29;101901.50;;;19.10;55.59
31044;BME280;17710;52.520;13.352;2022-10-17T00:03:56;101899.16;;;19.37;54.89
31044;BME280;17710;52.520;13.352;2022-10-17T00:06:23;101896.91;;;19.29;54.95
31044;BME280;17710;52.520;13.352;2022-10-17T00:08:50;101899.50;;;19.31;54.93
31044;BME280;17710;52.520;13.352;2022-10-17T00:11:19;101909.53;;;19.27;54.84
31044;BME280;17710;52.520;13.352;2022-10-17T00:13:47;101904.38;;;19.40;54.49
31044;BME280;17710;52.520;13.352;2022-10-17T00:16:15;101904.50;;;19.04;55.66
31044;BME280;17710;52.520;13.352;2022-10-17T00:18:41;101892.34;;;19.48;54.66
31044;BME280;17710;52.520;13.352;2022-10-17T00:21:14;101889.06;;;19.59;54.38
31044;BME280;17710;52.520;13.352;2022-10-17T00:23:42;101875.50;;;19.45;54.52
31044;BME280;17710;52.520;13.352;2022-10-17T00:26:08;101891.47;;;19.48;54.70
31044;BME280;17710;52.520;13.352;2022-10-17T00:28:35;101895.06;;;19.14;55.43
31044;BME280;17710;52.520;13.352;2022-10-17T00:31:03;101903.44;;;19.24;55.08
31044;BME280;17710;52.520;13.352;2022-10-17T00:33:30;101899.66;;;18.95;56.17
31044;BME280;17710;52.520;13.352;2022-10-17T00:36:04;101897.75;;;18.97;56.23
31044;BME280;17710;52.520;13.352;2022-10-17T00:38:31;101888.81;;;19.14;55.83
31044;BME280;17710;52.520;13.352;2022-10-17T00:40:59;101880.38;;;19.21;55.45
31044;BME280;17710;52.520;13.352;2022-10-17T00:43:25;101887.19;;;18.94;56.57
31044;BME280;17710;52.520;13.352;2022-10-17T00:45:53;101881.38;;;18.86;56.59
31044;BME280;17710;52.520;13.352;2022-10-17T00:48:21;101894.75;;;19.03;56.37
31044;BME280;17710;52.520;13.352;2022-10-17T00:50:49;101896.09;;;18.94;56.65
31044;BME280;17710;52.520;13.352;2022-10-17T00:53:17;101904.28;;;18.91;56.94
31044;BME280;17710;52.520;13.352;2022-10-17T00:55:47;101908.38;;;18.98;56.63
31044;BME280;17710;52.520;13.352;2022-10-17T00:58:16;101909.06;;;19.19;56.41
31044;BME280;17710;52.520;13.352;2022-10-17T01:00:45;101916.22;;;19.19;56.34
31044;BME280;17710;52.520;13.352;2022-10-17T01:03:12;101904.78;;;19.32;56.12
31044;BME280;17710;52.520;13.352;2022-10-17T01:05:40;101898.31;;;19.54;55.18
31044;BME280;17710;52.520;13.352;2022-10-17T01:08:07;101892.41;;;19.47;55.55
31044;BME280;17710;52.520;13.352;2022-10-17T01:10:47;101878.81;;;19.50;54.85
31044;BME280;17710;52.520;13.352;2022-10-17T01:13:23;101880.94;;;19.43;55.37
31044;BME280;17710;52.520;13.352;2022-10-17T01:16:00;101881.69;;;19.47;55.30
31044;BME280;17710;52.520;13.352;2022-10-17T01:18:42;101886.75;;;19.36;55.51
31044;BME280;17710;52.520;13.352;2022-10-17T01:21:29;101879.47;;;19.38;55.54
31044;BME280;17710;52.520;13.352;2022-10-17T01:27:17;101879.00;;;19.30;56.08
31044;BME280;17710;52.520;13.352;2022-10-17T01:30:02;101876.09;;;19.34;56.32
31044;BME280;17710;52.520;13.352;2022-10-17T01:32:38;101870.69;;;19.52;56.03
31044;BME280;17710;52.520;13.352;2022-10-17T01:35:11;101869.34;;;19.43;55.97
31044;BME280;17710;52.520;13.352;2022-10-17T01:37:45;101868.81;;;19.54;55.90
31044;BME280;17710;52.520;13.352;2022-10-17T01:40:15;101864.66;;;19.31;56.38
31044;BME280;17710;52.520;13.352;2022-10-17T01:42:52;101866.06;;;19.05;57.02
31044;BME280;17710;52.520;13.352;2022-10-17T01:45:26;101867.34;;;19.48;56.35
31044;BME280;17710;52.520;13.352;2022-10-17T01:48:00;101862.66;;;19.19;57.65
31044;BME280;17710;52.520;13.352;2022-10-17T01:50:31;101866.81;;;19.24;57.56
31044;BME280;17710;52.520;13.352;2022-10-17T01:53:04;101861.13;;;19.30;57.17
31044;BME280;17710;52.520;13.352;2022-10-17T01:55:35;101858.00;;;19.22;57.81
31044;BME280;17710;52.520;13.352;2022-10-17T01:58:06;101860.03;;;19.17;58.06
31044;BME280;17710;52.520;13.352;2022-10-17T02:00:33;101857.53;;;19.14;58.27
31044;BME280;17710;52.520;13.352;2022-10-17T02:03:06;101859.97;;;19.19;58.64
31044;BME280;17710;52.520;13.352;2022-10-17T02:05:36;101862.31;;;19.25;58.49
31044;BME280;17710;52.520;13.352;2022-10-17T02:08:04;101864.00;;;19.10;59.09
31044;BME280;17710;52.520;13.352;2022-10-17T02:10:35;101865.53;;;18.98;59.65
31044;BME280;17710;52.520;13.352;2022-10-17T02:13:09;101862.94;;;18.97;60.16
31044;BME280;17710;52.520;13.352;2022-10-17T02:15:57;101863.38;;;19.05;60.37
31044;BME280;17710;52.520;13.352;2022-10-17T02:18:46;101855.31;;;19.22;59.58
31044;BME280;17710;52.520;13.352;2022-10-17T02:21:22;101861.75;;;19.02;60.96
31044;BME280;17710;52.520;13.352;2022-10-17T02:23:53;101857.38;;;19.17;60.32
31044;BME280;17710;52.520;13.352;2022-10-17T02:26:25;101866.44;;;19.15;60.82
31044;BME280;17710;52.520;13.352;2022-10-17T02:29:02;101859.50;;;19.10;61.51
31044;BME280;17710;52.520;13.352;2022-10-17T02:31:35;101860.44;;;19.27;60.82
31044;BME280;17710;52.520;13.352;2022-10-17T02:34:08;101859.50;;;19.10;61.26
31044;BME280;17710;52.520;13.352;2022-10-17T02:36:42;101853.19;;;19.29;60.81
31044;BME280;17710;52.520;13.352;2022-10-17T02:39:11;101849.28;;;19.34;61.01
31044;BME280;17710;52.520;13.352;2022-10-17T02:41:39;101848.97;;;19.40;60.38
31044;BME280;17710;52.520;13.352;2022-10-17T02:44:07;101849.53;;;19.30;61.00
31044;BME280;17710;52.520;13.352;2022-10-17T02:46:34;101850.03;;;19.21;61.06
31044;BME280;17710;52.520;13.352;2022-10-17T02:49:07;101847.22;;;19.39;60.55
31044;BME280;17710;52.520;13.352;2022-10-17T02:51:39;101843.75;;;19.37;60.86
31044;BME280;17710;52.520;13.352;2022-10-17T02:54:11;101840.84;;;19.09;61.78
31044;BME280;17710;52.520;13.352;2022-10-17T02:56:41;101842.59;;;18.93;62.38
31044;BME280;17710;52.520;13.352;2022-10-17T02:59:11;101837.06;;;19.46;60.49
31044;BME280;17710;52.520;13.352;2022-10-17T03:01:40;101843.91;;;19.52;60.56
31044;BME280;17710;52.520;13.352;2022-10-17T03:04:10;101834.69;;;19.40;60.44
31044;BME280;17710;52.520;13.352;2022-10-17T03:06:37;101843.75;;;19.04;62.28
31044;BME280;17710;52.520;13.352;2022-10-17T03:09:04;101834.84;;;19.21;61.58
31044;BME280;17710;52.520;13.352;2022-10-17T03:11:30;101839.88;;;19.43;60.61
31044;BME280;17710;52.520;13.352;2022-10-17T03:13:57;101842.00;;;19.36;61.07
31044;BME280;17710;52.520;13.352;2022-10-17T03:16:23;101842.19;;;19.33;61.44
31044;BME280;17710;52.520;13.352;2022-10-17T03:18:50;101842.25;;;19.16;62.19
31044;BME280;17710;52.520;13.352;2022-10-17T03:21:17;101850.72;;;19.24;62.34
31044;BME280;17710;52.520;13.352;2022-10-17T03:23:44;101846.22;;;19.25;62.16
31044;BME280;17710;52.520;13.352;2022-10-17T03:26:10;101847.50;;;18.85;63.90
31044;BME280;17710;52.520;13.352;2022-10-17T03:28:37;101833.22;;;19.01;63.21
31044;BME280;17710;52.520;13.352;2022-10-17T03:31:07;101837.59;;;19.20;62.93
31044;BME280;17710;52.520;13.352;2022-10-17T03:33:34;101829.00;;;19.13;63.39
31044;BME280;17710;52.520;13.352;2022-10-17T03:36:04;101823.72;;;19.11;63.32
31044;BME280;17710;52.520;13.352;2022-10-17T03:38:32;101828.94;;;19.15;63.32
31044;BME280;17710;52.520;13.352;2022-10-17T03:40:58;101834.84;;;19.21;62.93
31044;BME280;17710;52.520;13.352;2022-10-17T03:43:25;101835.59;;;19.23;62.96
31044;BME280;17710;52.520;13.352;2022-10-17T03:45:51;101835.38;;;19.28;62.74
31044;BME280;17710;52.520;13.352;2022-10-17T03:48:17;101833.25;;;19.17;63.38
31044;BME280;17710;52.520;13.352;2022-10-17T03:50:44;101828.53;;;19.22;63.08
31044;BME280;17710;52.520;13.352;2022-10-17T03:53:10;101835.50;;;19.09;63.28
31044;BME280;17710;52.520;13.352;2022-10-17T03:55:38;101829.75;;;19.32;62.37
31044;BME280;17710;52.520;13.352;2022-10-17T03:58:04;101814.66;;;19.47;61.92
31044;BME280;17710;52.520;13.352;2022-10-17T04:00:31;101818.22;;;19.30;62.59
31044;BME280;17710;52.520;13.352;2022-10-17T04:02:57;101822.72;;;19.14;62.79
31044;BME280;17710;52.520;13.352;2022-10-17T04:05:24;101821.88;;;19.29;62.65
31044;BME280;17710;52.520;13.352;2022-10-17T04:07:51;101824.78;;;19.09;63.28
31044;BME280;17710;52.520;13.352;2022-10-17T04:10:17;101812.34;;;19.08;63.45
31044;BME280;17710;52.520;13.352;2022-10-17T04:12:45;101810.84;;;19.02;63.80
31044;BME280;17710;52.520;13.352;2022-10-17T04:15:12;101807.84;;;19.08;63.68
31044;BME280;17710;52.520;13.352;2022-10-17T04:17:38;101807.63;;;18.96;64.16
31044;BME280;17710;52.520;13.352;2022-10-17T04:20:06;101805.41;;;19.04;63.86
31044;BME280;17710;52.520;13.352;2022-10-17T04:22:33;101803.47;;;18.90;64.27
31044;BME280;17710;52.520;13.352;2022-10-17T04:24:59;101813.69;;;18.99;64.25
31044;BME280;17710;52.520;13.352;2022-10-17T04:27:26;101820.94;;;18.97;64.35
31044;BME280;17710;52.520;13.352;2022-10-17T04:29:54;101818.22;;;18.82;64.91
31044;BME280;17710;52.520;13.352;2022-10-17T04:32:20;101815.78;;;19.10;63.77
31044;BME280;17710;52.520;13.352;2022-10-17T04:34:47;101820.66;;;18.86;64.65
31044;BME280;17710;52.520;13.352;2022-10-17T04:37:14;101809.84;;;18.88;64.68
31044;BME280;17710;52.520;13.352;2022-10-17T04:39:40;101811.63;;;19.04;64.01
31044;BME280;17710;52.520;13.352;2022-10-17T04:42:07;101813.94;;;18.78;65.05
31044;BME280;17710;52.520;13.352;2022-10-17T04:44:33;101814.56;;;19.00;64.04
31044;BME280;17710;52.520;13.352;2022-10-17T04:47:01;101816.09;;;18.88;64.77
31044;BME280;17710;52.520;13.352;2022-10-17T04:49:27;101819.19;;;18.63;65.49
31044;BME280;17710;52.520;13.352;2022-10-17T04:51:54;101813.50;;;18.69;65.27
31044;BME280;17710;52.520;13.352;2022-10-17T04:54:20;101815.56;;;18.97;64.56
31044;BME280;17710;52.520;13.352;2022-10-17T04:56:47;101817.72;;;18.91;64.48
31044;BME280;17710;52.520;13.352;2022-10-17T04:59:13;101813.03;;;19.11;63.82
31044;BME280;17710;52.520;13.352;2022-10-17T05:01:40;101816.94;;;18.89;64.24
31044;BME280;17710;52.520;13.352;2022-10-17T05:04:07;101815.69;;;18.79;64.67
31044;BME280;17710;52.520;13.352;2022-10-17T05:06:34;101814.81;;;18.95;64.35
31044;BME280;17710;52.520;13.352;2022-10-17T05:09:03;101812.88;;;18.82;64.44
31044;BME280;17710;52.520;13.352;2022-10-17T05:11:29;101809.00;;;18.87;64.44
31044;BME280;17710;52.520;13.352;2022-10-17T05:13:57;101819.94;;;18.65;65.70
31044;BME280;17710;52.520;13.352;2022-10-17T05:16:25;101822.41;;;18.70;65.01
31044;BME280;17710;52.520;13.352;2022-10-17T05:18:53;101822.09;;;18.59;65.53
31044;BME280;17710;52.520;13.352;2022-10-17T05:21:23;101821.88;;;18.63;65.56
31044;BME280;17710;52.520;13.352;2022-10-17T05:23:49;101822.75;;;18.45;65.89
31044;BME280;17710;52.520;13.352;2022-10-17T05:26:16;101825.41;;;18.64;65.87
31044;BME280;17710;52.520;13.352;2022-10-17T05:28:42;101821.69;;;18.66;65.72
31044;BME280;17710;52.520;13.352;2022-10-17T05:31:10;101813.66;;;18.66;65.60
31044;BME280;17710;52.520;13.352;2022-10-17T05:33:37;101814.59;;;18.48;66.09
31044;BME280;17710;52.520;13.352;2022-10-17T05:36:05;101818.00;;;18.69;65.68
31044;BME280;17710;52.520;13.352;2022-10-17T05:38:35;101820.13;;;18.62;65.95
31044;BME280;17710;52.520;13.352;2022-10-17T05:41:03;101815.25;;;18.70;65.70
31044;BME280;17710;52.520;13.352;2022-10-17T05:43:31;101821.31;;;18.57;66.52
31044;BME280;17710;52.520;13.352;2022-10-17T05:45:57;101815.16;;;18.38;67.12
31044;BME280;17710;52.520;13.352;2022-10-17T05:48:24;101817.72;;;18.39;67.20
31044;BME280;17710;52.520;13.352;2022-10-17T05:50:56;101818.28;;;18.46;66.95
31044;BME280;17710;52.520;13.352;2022-10-17T05:53:23;101818.28;;;18.46;67.07
31044;BME280;17710;52.520;13.352;2022-10-17T05:55:56;101825.03;;;18.53;67.17
31044;BME280;17710;52.520;13.352;2022-10-17T05:58:22;101832.13;;;18.54;67.17
31044;BME280;17710;52.520;13.352;2022-10-17T06:00:49;101826.75;;;18.55;66.72
31044;BME280;17710;52.520;13.352;2022-10-17T06:03:15;101830.75;;;18.64;66.70
31044;BME280;17710;52.520;13.352;2022-10-17T06:05:42;101827.38;;;18.60;66.83
31044;BME280;17710;52.520;13.352;2022-10-17T06:08:09;101834.28;;;18.64;66.49
31044;BME280;17710;52.520;13.352;2022-10-17T06:10:35;101838.94;;;18.61;66.92
31044;BME280;17710;52.520;13.352;2022-10-17T06:13:03;101852.72;;;18.70;66.42
31044;BME280;17710;52.520;13.352;2022-10-17T06:15:29;101855.06;;;18.94;65.42
31044;BME280;17710;52.520;13.352;2022-10-17T06:17:56;101857.66;;;18.95;65.34
31044;BME280;17710;52.520;13.352;2022-10-17T06:20:22;101868.22;;;18.81;65.85
31044;BME280;17710;52.520;13.352;2022-10-17T06:22:49;101866.88;;;18.90;65.50
31044;BME280;17710;52.520;13.352;2022-10-17T06:25:15;101871.84;;;18.80;65.86
31044;BME280;17710;52.520;13.352;2022-10-17T06:27:42;101864.00;;;19.10;64.57
31044;BME280;17710;52.520;13.352;2022-10-17T06:30:10;101873.88;;;19.09;64.77
31044;BME280;17710;52.520;13.352;2022-10-17T06:32:36;101867.72;;;19.40;63.57
31044;BME280;17710;52.520;13.352;2022-10-17T06:35:03;101873.22;;;19.37;63.88
31044;BME280;17710;52.520;13.352;2022-10-17T06:37:31;101880.41;;;19.04;64.68
31044;BME280;17710;52.520;13.352;2022-10-17T06:39:58;101873.81;;;18.94;64.85
31044;BME280;17710;52.520;13.352;2022-10-17T06:42:24;101878.25;;;19.10;64.48
31044;BME280;17710;52.520;13.352;2022-10-17T06:44:50;101883.28;;;19.17;64.51
31044;BME280;17710;52.520;13.352;2022-10-17T06:47:18;101880.78;;;19.14;64.55
31044;BME280;17710;52.520;13.352;2022-10-17T06:49:45;101889.97;;;19.25;63.94
31044;BME280;17710;52.520;13.352;2022-10-17T06:52:12;101885.81;;;19.20;63.93
31044;BME280;17710;52.520;13.352;2022-10-17T06:54:41;101882.06;;;19.39;63.41
31044;BME280;17710;52.520;13.352;2022-10-17T06:57:07;101884.75;;;19.39;63.43
31044;BME280;17710;52.520;13.352;2022-10-17T06:59:34;101874.03;;;19.39;63.48
31044;BME280;17710;52.520;13.352;2022-10-17T07:02:01;101880.75;;;19.48;63.39
31044;BME280;17710;52.520;13.352;2022-10-17T07:04:29;101877.47;;;19.59;63.13
31044;BME280;17710;52.520;13.352;2022-10-17T07:06:56;101884.47;;;19.61;62.36
31044;BME280;17710;52.520;13.352;2022-10-17T07:09:23;101884.81;;;19.55;62.90
31044;BME280;17710;52.520;13.352;2022-10-17T07:11:50;101887.16;;;19.61;62.68
31044;BME280;17710;52.520;13.352;2022-10-17T07:14:17;101881.97;;;20.05;61.69
31044;BME280;17710;52.520;13.352;2022-10-17T07:16:43;101896.19;;;20.07;61.15
31044;BME280;17710;52.520;13.352;2022-10-17T07:19:10;101889.50;;;20.14;60.65
31044;BME280;17710;52.520;13.352;2022-10-17T07:21:38;101907.00;;;20.06;61.16
31044;BME280;17710;52.520;13.352;2022-10-17T07:24:05;101906.28;;;20.18;60.75
31044;BME280;17710;52.520;13.352;2022-10-17T07:26:32;101896.50;;;20.17;60.63
31044;BME280;17710;52.520;13.352;2022-10-17T07:28:58;101910.34;;;20.09;60.92
31044;BME280;17710;52.520;13.352;2022-10-17T07:31:25;101903.94;;;20.27;60.30
31044;BME280;17710;52.520;13.352;2022-10-17T07:33:52;101901.81;;;20.34;60.35
31044;BME280;17710;52.520;13.352;2022-10-17T07:36:18;101899.53;;;20.26;60.52
31044;BME280;17710;52.520;13.352;2022-10-17T07:38:46;101894.75;;;20.32;60.15
31044;BME280;17710;52.520;13.352;2022-10-17T07:41:15;101898.38;;;20.30;59.87
31044;BME280;17710;52.520;13.352;2022-10-17T07:43:41;101902.91;;;20.46;59.82
31044;BME280;17710;52.520;13.352;2022-10-17T07:46:08;101900.66;;;20.54;59.56
31044;BME280;17710;52.520;13.352;2022-10-17T07:48:36;101895.31;;;20.68;59.15
31044;BME280;17710;52.520;13.352;2022-10-17T07:51:04;101901.41;;;20.56;59.15
31044;BME280;17710;52.520;13.352;2022-10-17T07:53:31;101894.09;;;20.74;58.92
31044;BME280;17710;52.520;13.352;2022-10-17T07:56:04;101906.66;;;20.73;58.89
31044;BME280;17710;52.520;13.352;2022-10-17T07:58:31;101905.88;;;20.71;58.63
31044;BME280;17710;52.520;13.352;2022-10-17T08:00:59;101909.84;;;20.94;58.42
31044;BME280;17710;52.520;13.352;2022-10-17T08:03:26;101906.31;;;20.93;58.21
31044;BME280;17710;52.520;13.352;2022-10-17T08:05:56;101907.53;;;21.18;57.63
31044;BME280;17710;52.520;13.352;2022-10-17T08:08:22;101908.91;;;21.25;56.97
31044;BME280;17710;52.520;13.352;2022-10-17T08:10:49;101907.16;;;21.24;57.25
31044;BME280;17710;52.520;13.352;2022-10-17T08:13:17;101908.13;;;21.23;56.88
31044;BME280;17710;52.520;13.352;2022-10-17T08:15:43;101905.25;;;21.26;57.00
31044;BME280;17710;52.520;13.352;2022-10-17T08:18:12;101904.59;;;21.51;56.81
31044;BME280;17710;52.520;13.352;2022-10-17T08:20:38;101909.47;;;21.72;56.12
31044;BME280;17710;52.520;13.352;2022-10-17T08:23:05;101904.38;;;21.68;56.18
31044;BME280;17710;52.520;13.352;2022-10-17T08:25:45;101910.81;;;21.65;56.03
31044;BME280;17710;52.520;13.352;2022-10-17T08:28:14;101907.91;;;21.97;55.39
31044;BME280;17710;52.520;13.352;2022-10-17T08:30:42;101900.97;;;22.07;54.66
31044;BME280;17710;52.520;13.352;2022-10-17T08:33:09;101895.34;;;22.24;54.49
31044;BME280;17710;52.520;13.352;2022-10-17T08:35:35;101893.09;;;22.04;54.81
31044;BME280;17710;52.520;13.352;2022-10-17T08:38:01;101895.31;;;22.11;55.14
31044;BME280;17710;52.520;13.352;2022-10-17T08:40:30;101896.84;;;22.01;54.98
31044;BME280;17710;52.520;13.352;2022-10-17T08:43:19;101901.84;;;22.34;54.17
31044;BME280;17710;52.520;13.352;2022-10-17T08:45:54;101894.75;;;22.19;54.56
31044;BME280;17710;52.520;13.352;2022-10-17T08:48:26;101895.97;;;22.54;53.81
31044;BME280;17710;52.520;13.352;2022-10-17T08:50:55;101892.69;;;22.63;53.52
31044;BME280;17710;52.520;13.352;2022-10-17T08:53:28;101891.38;;;22.69;53.09
31044;BME280;17710;52.520;13.352;2022-10-17T08:55:57;101893.19;;;22.83;52.83
31044;BME280;17710;52.520;13.352;2022-10-17T08:58:27;101896.69;;;22.71;53.04
31044;BME280;17710;52.520;13.352;2022-10-17T09:01:02;101890.06;;;22.89;52.54
31044;BME280;17710;52.520;13.352;2022-10-17T09:03:44;101887.91;;;22.94;52.50
31044;BME280;17710;52.520;13.352;2022-10-17T09:06:20;101893.72;;;22.88;52.73
31044;BME280;17710;52.520;13.352;2022-10-17T09:09:02;101899.03;;;23.02;52.43
31044;BME280;17710;52.520;13.352;2022-10-17T09:11:40;101900.53;;;23.19;51.76
31044;BME280;17710;52.520;13.352;2022-10-17T09:14:25;101909.16;;;23.24;51.76
31044;BME280;17710;52.520;13.352;2022-10-17T09:17:07;101900.75;;;23.66;50.55
31044;BME280;17710;52.520;13.352;2022-10-17T09:19:40;101904.19;;;23.81;50.50
31044;BME280;17710;52.520;13.352;2022-10-17T09:22:11;101910.19;;;23.84;50.28
31044;BME280;17710;52.520;13.352;2022-10-17T09:24:42;101904.75;;;23.97;50.20
31044;BME280;17710;52.520;13.352;2022-10-17T09:27:18;101893.50;;;24.03;49.96
31044;BME280;17710;52.520;13.352;2022-10-17T09:29:49;101885.63;;;24.37;49.28
31044;BME280;17710;52.520;13.352;2022-10-17T09:32:21;101886.47;;;24.13;49.04
31044;BME280;17710;52.520;13.352;2022-10-17T09:34:50;101892.75;;;24.38;48.91
31044;BME280;17710;52.520;13.352;2022-10-17T09:37:17;101889.19;;;24.61;48.62
31044;BME280;17710;52.520;13.352;2022-10-17T09:39:45;101880.47;;;24.34;48.71
31044;BME280;17710;52.520;13.352;2022-10-17T09:42:13;101881.25;;;24.47;48.29
31044;BME280;17710;52.520;13.352;2022-10-17T09:44:47;101877.81;;;24.45;48.21
31044;BME280;17710;52.520;13.352;2022-10-17T09:47:27;101883.81;;;24.48;48.18
31044;BME280;17710;52.520;13.352;2022-10-17T09:49:56;101880.50;;;24.45;47.92
31044;BME280;17710;52.520;13.352;2022-10-17T09:52:26;101877.97;;;24.54;47.88
31044;BME280;17710;52.520;13.352;2022-10-17T09:54:58;101880.63;;;24.43;48.09
31044;BME280;17710;52.520;13.352;2022-10-17T09:57:25;101880.53;;;24.56;47.89
31044;BME280;17710;52.520;13.352;2022-10-17T09:59:57;101882.75;;;24.86;47.40
31044;BME280;17710;52.520;13.352;2022-10-17T10:02:27;101876.53;;;24.96;46.79
31044;BME280;17710;52.520;13.352;2022-10-17T10:05:01;101870.31;;;24.83;46.76
31044;BME280;17710;52.520;13.352;2022-10-17T10:07:29;101874.34;;;25.13;46.98
31044;BME280;17710;52.520;13.352;2022-10-17T10:09:57;101871.78;;;25.45;46.19
31044;BME280;17710;52.520;13.352;2022-10-17T10:12:26;101876.22;;;25.46;45.60
31044;BME280;17710;52.520;13.352;2022-10-17T10:14:54;101873.28;;;25.71;45.37
31044;BME280;17710;52.520;13.352;2022-10-17T10:17:34;101875.09;;;25.93;44.78
31044;BME280;17710;52.520;13.352;2022-10-17T10:20:01;101873.63;;;25.77;44.57
31044;BME280;17710;52.520;13.352;2022-10-17T10:22:29;101872.50;;;25.91;44.42
31044;BME280;17710;52.520;13.352;2022-10-17T10:25:14;101878.31;;;25.75;44.41
31044;BME280;17710;52.520;13.352;2022-10-17T10:27:41;101877.19;;;25.89;44.65
31044;BME280;17710;52.520;13.352;2022-10-17T10:30:16;101886.28;;;25.88;44.44
31044;BME280;17710;52.520;13.352;2022-10-17T10:32:47;101885.69;;;25.73;44.47
31044;BME280;17710;52.520;13.352;2022-10-17T10:35:19;101874.38;;;25.68;44.80
31044;BME280;17710;52.520;13.352;2022-10-17T10:37:49;101877.91;;;25.91;44.29
31044;BME280;17710;52.520;13.352;2022-10-17T10:40:18;101876.63;;;26.17;44.17
31044;BME280;17710;52.520;13.352;2022-10-17T10:42:46;101872.81;;;26.09;43.87
31044;BME280;17710;52.520;13.352;2022-10-17T10:45:17;101871.56;;;26.13;43.91
31044;BME280;17710;52.520;13.352;2022-10-17T10:47:53;101873.63;;;26.20;43.52
31044;BME280;17710;52.520;13.352;2022-10-17T10:50:25;101869.72;;;26.13;43.52
31044;BME280;17710;52.520;13.352;2022-10-17T10:52:58;101866.63;;;26.29;43.35
31044;BME280;17710;52.520;13.352;2022-10-17T10:55:33;101855.69;;;26.31;42.99
31044;BME280;17710;52.520;13.352;2022-10-17T10:58:17;101856.53;;;26.20;43.35
31044;BME280;17710;52.520;13.352;2022-10-17T11:00:45;101853.56;;;26.34;43.20
31044;BME280;17710;52.520;13.352;2022-10-17T11:03:18;101859.50;;;26.28;42.94
31044;BME280;17710;52.520;13.352;2022-10-17T11:05:50;101854.41;;;26.35;42.72
31044;BME280;17710;52.520;13.352;2022-10-17T11:08:24;101866.94;;;26.47;42.82
31044;BME280;17710;52.520;13.352;2022-10-17T11:11:08;101867.22;;;26.65;42.12
31044;BME280;17710;52.520;13.352;2022-10-17T11:13:46;101853.84;;;26.73;41.49
31044;BME280;17710;52.520;13.352;2022-10-17T11:16:27;101850.47;;;26.59;41.35
31044;BME280;17710;52.520;13.352;2022-10-17T11:19:03;101838.19;;;26.55;41.37
31044;BME280;17710;52.520;13.352;2022-10-17T11:21:46;101840.63;;;26.58;41.31
31044;BME280;17710;52.520;13.352;2022-10-17T11:24:20;101840.03;;;26.55;41.20
31044;BME280;17710;52.520;13.352;2022-10-17T11:26:53;101846.66;;;26.62;41.30
31044;BME280;17710;52.520;13.352;2022-10-17T11:29:26;101842.75;;;26.76;41.28
31044;BME280;17710;52.520;13.352;2022-10-17T11:31:54;101841.28;;;26.72;41.38
31044;BME280;17710;52.520;13.352;2022-10-17T11:34:24;101834.44;;;27.09;41.19
31044;BME280;17710;52.520;13.352;2022-10-17T11:37:00;101833.78;;;26.96;41.24
31044;BME280;17710;52.520;13.352;2022-10-17T11:39:41;101843.09;;;27.03;41.10
31044;BME280;17710;52.520;13.352;2022-10-17T11:42:16;101844.22;;;27.01;40.93
31044;BME280;17710;52.520;13.352;2022-10-17T11:44:43;101844.66;;;26.85;40.59
31044;BME280;17710;52.520;13.352;2022-10-17T11:47:22;101843.44;;;26.89;40.92
31044;BME280;17710;52.520;13.352;2022-10-17T11:49:53;101838.66;;;27.02;40.53
31044;BME280;17710;52.520;13.352;2022-10-17T11:52:32;101833.50;;;26.99;40.02
31044;BME280;17710;52.520;13.352;2022-10-17T11:55:02;101840.06;;;26.96;40.27
31044;BME280;17710;52.520;13.352;2022-10-17T11:57:39;101836.25;;;26.88;40.31
31044;BME280;17710;52.520;13.352;2022-10-17T12:00:20;101834.97;;;27.03;40.04
31044;BME280;17710;52.520;13.352;2022-10-17T12:02:52;101833.81;;;27.06;40.09
31044;BME280;17710;52.520;13.352;2022-10-17T12:05:27;101832.81;;;26.86;40.27
31044;BME280;17710;52.520;13.352;2022-10-17T12:08:03;101827.53;;;27.05;40.28
31044;BME280;17710;52.520;13.352;2022-10-17T12:10:38;101829.44;;;27.14;39.90
31044;BME280;17710;52.520;13.352;2022-10-17T12:16:36;101825.19;;;27.52;39.40
31044;BME280;17710;52.520;13.352;2022-10-17T12:19:24;101815.41;;;27.40;39.56
31044;BME280;17710;52.520;13.352;2022-10-17T12:21:54;101820.28;;;27.46;39.60
31044;BME280;17710;52.520;13.352;2022-10-17T12:24:32;101816.31;;;27.50;39.59
31044;BME280;17710;52.520;13.352;2022-10-17T12:27:20;101817.38;;;27.28;39.66
31044;BME280;17710;52.520;13.352;2022-10-17T12:29:47;101815.69;;;27.36;39.51
31044;BME280;17710;52.520;13.352;2022-10-17T12:32:15;101818.00;;;27.51;39.58
31044;BME280;17710;52.520;13.352;2022-10-17T12:34:50;101810.84;;;27.40;39.34
31044;BME280;17710;52.520;13.352;2022-10-17T12:40:53;101803.22;;;27.55;39.32
31044;BME280;17710;52.520;13.352;2022-10-17T12:43:45;101804.09;;;27.65;39.22
31044;BME280;17710;52.520;13.352;2022-10-17T12:49:35;101804.16;;;28.13;38.50
31044;BME280;17710;52.520;13.352;2022-10-17T12:52:27;101810.63;;;28.31;37.91
31044;BME280;17710;52.520;13.352;2022-10-17T12:55:14;101811.91;;;28.46;37.63
31044;BME280;17710;52.520;13.352;2022-10-17T12:57:49;101801.00;;;28.75;37.29
31044;BME280;17710;52.520;13.352;2022-10-17T13:00:21;101802.38;;;28.89;36.85
31044;BME280;17710;52.520;13.352;2022-10-17T13:02:49;101793.88;;;28.74;36.82
31044;BME280;17710;52.520;13.352;2022-10-17T13:05:23;101790.09;;;28.85;36.55
31044;BME280;17710;52.520;13.352;2022-10-17T13:07:51;101794.94;;;29.01;36.16
31044;BME280;17710;52.520;13.352;2022-10-17T13:10:21;101788.97;;;28.68;37.11